Time;durP1;ratioP1;P1;durP2;ratioP2;P2;SDS_P1;SDS_P2;PMS_P1;PMS_P2;Temp;Humidity;BMP_temperature;BMP_pressure;BME280_temperature;BME280_humidity;BME280_pressure;Samples;Min_cycle;Max_cycle;Signal;HPM_P1;HPM_P2
2022/09/18 00:00:52;;;;;;;9.10;1.50;;;10.20;99.90;;;;;;5100477;27;20215;-69
2022/09/18 00:03:19;;;;;;;7.37;2.17;;;10.20;99.90;;;;;;5120591;27;20658;-70
2022/09/18 00:05:46;;;;;;;12.43;1.50;;;10.10;99.90;;;;;;5112496;28;20197;-70
2022/09/18 00:08:13;;;;;;;11.53;1.87;;;10.10;99.90;;;;;;5112457;28;20659;-69
2022/09/18 00:10:41;;;;;;;7.03;2.27;;;10.10;99.90;;;;;;5101701;28;20654;-69
2022/09/18 00:13:09;;;;;;;9.37;2.53;;;10.10;99.90;;;;;;5113865;28;20208;-70
2022/09/18 00:15:36;;;;;;;8.93;1.60;;;10.10;99.90;;;;;;5104916;28;20216;-69
2022/09/18 00:18:04;;;;;;;9.80;2.20;;;10.00;99.90;;;;;;5105485;27;20204;-69
2022/09/18 00:20:33;;;;;;;4.80;1.20;;;10.00;99.90;;;;;;5123736;27;20247;-69
2022/09/18 00:23:00;;;;;;;8.13;1.83;;;10.10;99.90;;;;;;5111249;27;20208;-70
2022/09/18 00:25:27;;;;;;;10.87;2.07;;;10.10;99.90;;;;;;5112189;28;20201;-70
2022/09/18 00:27:54;;;;;;;8.07;1.63;;;10.00;99.90;;;;;;5113165;28;20204;-69
2022/09/18 00:30:22;;;;;;;10.70;1.97;;;10.00;99.90;;;;;;5104314;28;20225;-70
2022/09/18 00:32:48;;;;;;;8.80;1.70;;;10.00;99.90;;;;;;5092699;28;20202;-70
2022/09/18 00:35:15;;;;;;;5.80;1.43;;;10.00;99.90;;;;;;5092258;28;20201;-70
2022/09/18 00:37:42;;;;;;;6.43;2.27;;;10.00;99.90;;;;;;5092336;28;20224;-71
2022/09/18 00:40:10;;;;;;;5.37;1.43;;;10.10;99.90;;;;;;5091958;28;20652;-72
2022/09/18 00:42:37;;;;;;;5.37;1.40;;;10.10;99.90;;;;;;5102962;28;20241;-71
2022/09/18 00:45:04;;;;;;;7.20;1.67;;;10.10;99.90;;;;;;5091327;28;20209;-71
2022/09/18 00:47:38;;;;;;;7.83;1.53;;;10.10;99.90;;;;;;5094538;28;20198;-71
2022/09/18 00:50:09;;;;;;;6.47;1.53;;;10.10;99.90;;;;;;5124141;27;20235;-72
2022/09/18 00:52:48;;;;;;;11.03;1.90;;;10.10;99.90;;;;;;5122407;27;20197;-71
2022/09/18 00:55:16;;;;;;;7.47;1.80;;;10.20;99.90;;;;;;5112831;28;20196;-72
2022/09/18 00:57:49;;;;;;;7.93;1.37;;;10.20;99.90;;;;;;5112391;28;20682;-70
2022/09/18 01:00:15;;;;;;;9.57;2.43;;;10.20;99.90;;;;;;5098565;28;20663;-71
2022/09/18 01:02:45;;;;;;;9.63;2.10;;;10.30;99.90;;;;;;5092555;28;20205;-70
2022/09/18 01:05:14;;;;;;;5.47;1.37;;;10.30;99.90;;;;;;5091899;28;20217;-70
2022/09/18 01:08:07;;;;;;;8.67;1.50;;;10.30;99.90;;;;;;5092102;28;20670;-71
2022/09/18 01:10:57;;;;;;;9.47;2.27;;;10.30;99.90;;;;;;5091117;28;20261;-71
2022/09/18 01:13:33;;;;;;;11.67;1.73;;;10.40;99.90;;;;;;5091194;28;20201;-71
2022/09/18 01:16:06;;;;;;;4.87;1.33;;;10.40;99.90;;;;;;5091462;28;20215;-71
2022/09/18 01:18:43;;;;;;;16.70;2.17;;;10.40;99.90;;;;;;5108422;28;20215;-70
2022/09/18 01:21:12;;;;;;;8.10;1.63;;;10.40;99.90;;;;;;5098913;28;20574;-70
2022/09/18 01:24:07;;;;;;;5.40;1.07;;;10.40;99.90;;;;;;5092252;28;20206;-70
2022/09/18 01:26:56;;;;;;;6.50;1.40;;;10.50;99.90;;;;;;5093504;28;20202;-70
2022/09/18 01:29:43;;;;;;;8.20;1.60;;;10.50;99.90;;;;;;5110707;28;20697;-70
2022/09/18 01:32:16;;;;;;;6.47;1.63;;;10.50;99.90;;;;;;5130216;28;20708;-71
2022/09/18 01:34:48;;;;;;;9.17;1.63;;;10.50;99.90;;;;;;5122486;28;20208;-70
2022/09/18 01:37:20;;;;;;;7.77;1.50;;;10.60;99.90;;;;;;5129114;28;20211;-72
2022/09/18 01:39:52;;;;;;;6.60;1.70;;;10.60;99.90;;;;;;5124497;28;20538;-71
2022/09/18 01:42:23;;;;;;;5.80;1.20;;;10.60;99.90;;;;;;5111581;28;20193;-71
2022/09/18 01:44:54;;;;;;;5.03;1.47;;;10.70;99.90;;;;;;5100640;28;20212;-70
2022/09/18 01:47:24;;;;;;;9.63;1.40;;;10.70;99.90;;;;;;5092204;28;20301;-70
2022/09/18 01:49:54;;;;;;;11.13;2.10;;;10.70;99.90;;;;;;5090606;28;20221;-70
2022/09/18 01:52:25;;;;;;;7.27;2.07;;;10.70;99.90;;;;;;5101901;28;20523;-71
2022/09/18 01:54:55;;;;;;;9.67;1.93;;;10.70;99.90;;;;;;5100436;28;20243;-71
2022/09/18 01:57:25;;;;;;;5.53;0.97;;;10.70;99.90;;;;;;5102517;28;20194;-72
2022/09/18 01:59:57;;;;;;;6.93;1.23;;;10.60;99.90;;;;;;5104306;28;20201;-70
2022/09/18 02:02:31;;;;;;;7.13;1.13;;;10.60;99.90;;;;;;5102061;28;20205;-71
2022/09/18 02:05:00;;;;;;;4.93;1.37;;;10.70;99.90;;;;;;5103226;28;20200;-70
2022/09/18 02:07:32;;;;;;;5.53;1.10;;;10.60;99.90;;;;;;5106388;28;20476;-70
2022/09/18 02:09:59;;;;;;;4.70;1.23;;;10.60;99.90;;;;;;5110280;28;20544;-70
2022/09/18 02:12:28;;;;;;;7.40;1.70;;;10.60;99.90;;;;;;5111018;28;20201;-70
2022/09/18 02:15:00;;;;;;;7.93;1.17;;;10.60;99.90;;;;;;5103978;28;20201;-71
2022/09/18 02:17:30;;;;;;;8.67;1.50;;;10.60;99.90;;;;;;5091333;28;20205;-70
2022/09/18 02:20:00;;;;;;;6.90;1.57;;;10.60;99.90;;;;;;5091147;28;20202;-70
2022/09/18 02:22:31;;;;;;;6.70;1.73;;;10.50;99.90;;;;;;5095380;28;20206;-71
2022/09/18 02:25:01;;;;;;;6.67;1.37;;;10.50;99.90;;;;;;5094428;28;20208;-71
2022/09/18 02:27:31;;;;;;;6.10;1.27;;;10.40;99.90;;;;;;5095082;28;20201;-72
2022/09/18 02:30:01;;;;;;;6.50;1.23;;;10.40;99.90;;;;;;5111978;28;20213;-70
2022/09/18 02:32:28;;;;;;;9.07;1.50;;;10.40;99.90;;;;;;5107803;28;20210;-71
2022/09/18 02:34:55;;;;;;;6.10;1.47;;;10.40;99.90;;;;;;5094145;28;20676;-71
2022/09/18 02:37:30;;;;;;;8.93;1.03;;;10.40;99.90;;;;;;5097749;27;20222;-70
2022/09/18 02:40:08;;;;;;;8.07;1.60;;;10.30;99.90;;;;;;5134383;27;20553;-71
2022/09/18 02:42:44;;;;;;;4.23;1.10;;;10.30;99.90;;;;;;5100995;27;20197;-71
2022/09/18 02:45:22;;;;;;;7.53;1.70;;;10.20;99.90;;;;;;5123964;27;20196;-70
2022/09/18 02:48:05;;;;;;;6.17;1.73;;;10.20;99.90;;;;;;5107180;28;20205;-71
2022/09/18 02:50:40;;;;;;;8.77;1.57;;;10.20;99.90;;;;;;5113543;28;20649;-71
2022/09/18 02:53:13;;;;;;;4.97;1.60;;;10.10;99.90;;;;;;5114387;28;20204;-70
2022/09/18 02:55:45;;;;;;;7.93;1.40;;;10.10;99.90;;;;;;5112102;28;20239;-70
2022/09/18 02:58:19;;;;;;;3.67;0.97;;;10.00;99.90;;;;;;5094752;28;20216;-70
2022/09/18 03:00:48;;;;;;;4.93;1.30;;;10.00;99.90;;;;;;5093129;28;20202;-70
2022/09/18 03:03:17;;;;;;;6.37;1.43;;;10.00;99.90;;;;;;5101236;28;20193;-71
2022/09/18 03:05:44;;;;;;;3.60;1.10;;;10.10;99.90;;;;;;5096362;28;20249;-71
2022/09/18 03:08:12;;;;;;;5.30;1.23;;;10.10;99.90;;;;;;5093865;28;20197;-70
2022/09/18 03:10:38;;;;;;;7.33;1.63;;;10.20;99.90;;;;;;5093570;28;20229;-70
2022/09/18 03:13:05;;;;;;;8.13;1.60;;;10.20;99.90;;;;;;5093534;28;20198;-70
2022/09/18 03:15:32;;;;;;;6.47;1.63;;;10.20;99.90;;;;;;5093645;28;20217;-70
2022/09/18 03:18:00;;;;;;;5.67;0.97;;;10.20;99.90;;;;;;5104373;27;20200;-70
2022/09/18 03:20:27;;;;;;;4.40;1.73;;;10.20;99.90;;;;;;5112663;27;20198;-70
2022/09/18 03:22:54;;;;;;;6.07;1.40;;;10.20;99.90;;;;;;5113077;28;20204;-70
2022/09/18 03:25:21;;;;;;;6.70;1.67;;;10.20;99.90;;;;;;5114420;28;20205;-70
2022/09/18 03:27:47;;;;;;;4.20;1.47;;;10.20;99.90;;;;;;5114133;28;20201;-71
2022/09/18 03:30:14;;;;;;;8.03;1.60;;;10.20;99.90;;;;;;5112298;27;20227;-70
2022/09/18 03:32:41;;;;;;;6.70;1.27;;;10.20;99.90;;;;;;5110963;27;20656;-71
2022/09/18 03:35:10;;;;;;;5.00;1.33;;;10.20;99.90;;;;;;5093738;28;20202;-71
2022/09/18 03:37:36;;;;;;;4.83;1.30;;;10.20;99.90;;;;;;5093853;28;20216;-70
2022/09/18 03:40:04;;;;;;;7.70;1.57;;;10.10;99.90;;;;;;5101775;28;20201;-70
2022/09/18 03:42:31;;;;;;;6.87;1.83;;;10.00;99.90;;;;;;5113807;28;20657;-71
2022/09/18 03:44:58;;;;;;;5.97;0.90;;;10.00;99.90;;;;;;5105554;28;20213;-70
2022/09/18 03:47:26;;;;;;;9.23;1.90;;;9.90;99.90;;;;;;5109024;27;20208;-70
2022/09/18 03:49:53;;;;;;;8.17;1.83;;;9.90;99.90;;;;;;5116713;27;20586;-70
2022/09/18 03:52:21;;;;;;;7.90;1.30;;;9.80;99.90;;;;;;5115047;27;20559;-71
2022/09/18 03:54:48;;;;;;;6.70;1.90;;;9.80;99.90;;;;;;5105313;28;20208;-70
2022/09/18 03:57:14;;;;;;;3.73;1.73;;;9.70;99.90;;;;;;5131580;27;20578;-70
2022/09/18 03:59:41;;;;;;;8.17;1.43;;;9.60;99.90;;;;;;5117324;27;20695;-71
2022/09/18 04:02:08;;;;;;;6.83;1.40;;;9.60;99.90;;;;;;5118452;27;20200;-69
2022/09/18 04:04:35;;;;;;;8.60;2.33;;;9.60;99.90;;;;;;5120982;27;20207;-68
2022/09/18 04:07:01;;;;;;;7.67;2.40;;;9.60;99.90;;;;;;5113454;28;20200;-68
2022/09/18 04:09:30;;;;;;;6.07;1.50;;;9.60;99.90;;;;;;5109651;27;20213;-68
2022/09/18 04:11:56;;;;;;;10.00;2.20;;;9.70;99.90;;;;;;5121622;27;20201;-68
2022/09/18 04:14:23;;;;;;;7.53;1.93;;;9.70;99.90;;;;;;5112187;28;20583;-67
2022/09/18 04:16:50;;;;;;;6.33;2.00;;;9.80;99.90;;;;;;5107126;28;20262;-68
2022/09/18 04:19:17;;;;;;;9.70;2.30;;;9.80;99.90;;;;;;5112973;28;20203;-68
2022/09/18 04:21:44;;;;;;;4.60;2.23;;;9.70;99.90;;;;;;5097207;28;20571;-68
2022/09/18 04:24:10;;;;;;;6.93;2.20;;;9.70;99.90;;;;;;5113507;28;20232;-68
2022/09/18 04:26:38;;;;;;;4.40;2.40;;;9.70;99.90;;;;;;5093669;28;20591;-68
2022/09/18 04:29:05;;;;;;;10.73;2.40;;;9.70;99.90;;;;;;5091594;28;20712;-68
2022/09/18 04:31:32;;;;;;;7.37;2.87;;;9.70;99.90;;;;;;5092212;28;20240;-68
2022/09/18 04:33:59;;;;;;;10.10;2.80;;;9.70;99.90;;;;;;5093120;28;20551;-68
2022/09/18 04:36:26;;;;;;;8.97;2.70;;;9.70;99.90;;;;;;5092029;28;20209;-70
2022/09/18 04:38:53;;;;;;;5.43;2.60;;;9.70;99.90;;;;;;5091821;28;20239;-70
2022/09/18 04:41:19;;;;;;;8.43;2.40;;;9.80;99.90;;;;;;5090904;28;20208;-68
2022/09/18 04:43:48;;;;;;;5.83;2.47;;;9.80;99.90;;;;;;5092280;28;20217;-71
2022/09/18 04:46:14;;;;;;;5.00;2.63;;;9.80;99.90;;;;;;5091492;28;20296;-68
2022/09/18 04:48:46;;;;;;;5.67;2.53;;;9.80;99.90;;;;;;5100938;28;20628;-68
2022/09/18 04:51:13;;;;;;;7.30;2.70;;;9.80;99.90;;;;;;5103266;27;20301;-70
2022/09/18 04:53:41;;;;;;;7.57;2.40;;;9.70;99.90;;;;;;5105695;27;20547;-69
2022/09/18 04:56:08;;;;;;;7.53;2.40;;;9.70;99.90;;;;;;5102517;27;20239;-70
2022/09/18 04:58:34;;;;;;;7.00;2.13;;;9.70;99.90;;;;;;5102770;27;20236;-68
2022/09/18 05:01:03;;;;;;;6.60;2.00;;;9.70;99.90;;;;;;5103656;28;20235;-68
2022/09/18 05:03:30;;;;;;;7.93;2.87;;;9.80;99.90;;;;;;5097601;28;20260;-68
2022/09/18 05:05:57;;;;;;;5.80;2.63;;;9.80;99.90;;;;;;5102486;28;20201;-68
2022/09/18 05:08:24;;;;;;;9.33;2.37;;;9.90;99.90;;;;;;5097557;27;20285;-70
2022/09/18 05:10:51;;;;;;;7.20;2.20;;;9.90;99.90;;;;;;5105303;27;20251;-70
2022/09/18 05:13:17;;;;;;;8.83;2.27;;;9.90;99.90;;;;;;5101948;28;20287;-70
2022/09/18 05:15:44;;;;;;;6.53;2.13;;;9.90;99.90;;;;;;5106665;28;20231;-69
2022/09/18 05:18:13;;;;;;;8.20;2.60;;;10.00;99.90;;;;;;5107405;28;20232;-68
2022/09/18 05:20:40;;;;;;;8.83;3.43;;;10.00;99.90;;;;;;5098634;28;20550;-69
2022/09/18 05:23:07;;;;;;;7.33;2.30;;;10.00;99.90;;;;;;5112660;28;20205;-69
2022/09/18 05:25:34;;;;;;;11.90;2.90;;;10.00;99.90;;;;;;5098637;28;20656;-70
2022/09/18 05:28:03;;;;;;;6.50;2.50;;;10.10;99.90;;;;;;5098936;28;20289;-70
2022/09/18 05:30:31;;;;;;;8.47;3.50;;;10.20;99.90;;;;;;5104076;28;20316;-69
2022/09/18 05:33:00;;;;;;;12.30;3.03;;;10.30;99.90;;;;;;5104700;28;20683;-71
2022/09/18 05:35:30;;;;;;;7.80;2.67;;;10.30;99.90;;;;;;5103869;28;20208;-68
2022/09/18 05:37:58;;;;;;;6.67;2.20;;;10.40;99.90;;;;;;5106933;28;20205;-69
2022/09/18 05:40:29;;;;;;;9.03;2.37;;;10.40;99.90;;;;;;5097725;28;20612;-72
2022/09/18 05:42:57;;;;;;;9.80;2.53;;;10.40;99.90;;;;;;5100443;28;20244;-70
2022/09/18 05:45:24;;;;;;;7.23;2.63;;;10.40;99.90;;;;;;5098757;28;20266;-69
2022/09/18 05:47:55;;;;;;;10.80;2.23;;;10.30;99.90;;;;;;5104792;28;20200;-69
2022/09/18 05:50:24;;;;;;;8.63;2.10;;;10.30;99.90;;;;;;5103019;28;20212;-70
2022/09/18 05:53:03;;;;;;;5.87;1.83;;;10.40;99.90;;;;;;5100886;28;20217;-69
2022/09/18 05:55:31;;;;;;;9.37;2.57;;;10.40;99.90;;;;;;5109963;28;20205;-68
2022/09/18 05:58:00;;;;;;;5.50;1.93;;;10.50;99.90;;;;;;5110755;27;20688;-68
2022/09/18 06:00:28;;;;;;;4.03;1.70;;;10.40;99.90;;;;;;5105884;27;20209;-68
2022/09/18 06:02:57;;;;;;;5.90;1.63;;;10.40;99.90;;;;;;5104278;28;20613;-70
2022/09/18 06:05:25;;;;;;;6.60;2.13;;;10.30;99.90;;;;;;5107511;28;20673;-69
2022/09/18 06:07:52;;;;;;;9.93;1.83;;;10.30;99.90;;;;;;5101916;27;20209;-70
2022/09/18 06:10:22;;;;;;;6.73;2.10;;;10.30;99.90;;;;;;5106946;27;20226;-70
2022/09/18 06:12:49;;;;;;;5.27;1.73;;;10.30;99.90;;;;;;5100084;27;20205;-70
2022/09/18 06:15:17;;;;;;;9.10;2.10;;;10.40;99.90;;;;;;5114192;27;20611;-68
2022/09/18 06:17:51;;;;;;;5.80;1.83;;;10.40;99.90;;;;;;5099930;28;20205;-68
2022/09/18 06:20:18;;;;;;;4.97;2.10;;;10.40;99.90;;;;;;5100917;27;20247;-68
2022/09/18 06:22:45;;;;;;;7.10;2.00;;;10.40;99.90;;;;;;5107180;28;20205;-70
2022/09/18 06:25:18;;;;;;;8.67;2.13;;;10.40;99.90;;;;;;5110314;27;20207;-68
2022/09/18 06:27:46;;;;;;;6.83;2.27;;;10.40;99.90;;;;;;5100371;28;20204;-68
2022/09/18 06:30:14;;;;;;;6.00;2.80;;;10.50;99.90;;;;;;5105738;27;20254;-69
2022/09/18 06:32:40;;;;;;;3.43;1.97;;;10.60;99.90;;;;;;5112003;27;20737;-68
2022/09/18 06:35:09;;;;;;;7.00;2.30;;;10.70;99.90;;;;;;5102195;28;20293;-68
2022/09/18 06:37:36;;;;;;;6.73;2.60;;;10.90;99.90;;;;;;5104914;28;20206;-68
2022/09/18 06:40:03;;;;;;;11.40;2.50;;;11.00;99.90;;;;;;5103036;27;20570;-68
2022/09/18 06:42:30;;;;;;;6.57;2.30;;;11.10;99.90;;;;;;5111849;27;20202;-68
2022/09/18 06:44:59;;;;;;;5.97;2.87;;;11.20;99.90;;;;;;5105005;28;20200;-68
2022/09/18 06:47:25;;;;;;;7.07;2.53;;;11.30;99.90;;;;;;5108935;28;20236;-68
2022/09/18 06:49:52;;;;;;;7.43;2.27;;;11.30;99.90;;;;;;5108392;28;20310;-69
2022/09/18 06:52:19;;;;;;;5.17;2.33;;;11.20;99.90;;;;;;5100549;28;20226;-68
2022/09/18 06:54:46;;;;;;;5.87;2.17;;;11.20;99.90;;;;;;5105434;28;20229;-70
2022/09/18 06:57:13;;;;;;;4.77;2.10;;;11.20;99.90;;;;;;5094627;22;20249;-85
2022/09/18 06:59:40;;;;;;;10.17;3.00;;;11.20;99.90;;;;;;5065858;28;20297;-86
2022/09/18 07:02:12;;;;;;;6.40;2.57;;;11.30;99.90;;;;;;5062293;28;20207;-83
2022/09/18 07:04:39;;;;;;;6.83;1.93;;;11.40;99.90;;;;;;5068560;28;20234;-85
2022/09/18 07:07:07;;;;;;;5.07;2.63;;;11.50;99.90;;;;;;5059566;28;20666;-82
2022/09/18 07:09:34;;;;;;;3.83;2.70;;;11.50;99.90;;;;;;5062812;28;20624;-83
2022/09/18 07:12:01;;;;;;;13.03;3.30;;;11.40;99.90;;;;;;5058346;28;20222;-79
2022/09/18 07:14:27;;;;;;;6.00;2.07;;;11.60;99.90;;;;;;5061742;28;20746;-83
2022/09/18 07:16:54;;;;;;;5.13;2.20;;;11.70;99.90;;;;;;5061604;28;20582;-82
2022/09/18 07:19:22;;;;;;;7.30;2.23;;;11.70;99.90;;;;;;5063960;28;20299;-82
2022/09/18 07:21:51;;;;;;;8.07;2.00;;;11.70;99.90;;;;;;5061701;28;20203;-82
2022/09/18 07:24:18;;;;;;;6.47;2.17;;;11.80;99.90;;;;;;5061175;28;20206;-83
2022/09/18 07:26:44;;;;;;;7.87;1.93;;;12.10;99.90;;;;;;5067559;28;20208;-81
2022/09/18 07:29:11;;;;;;;7.80;1.90;;;12.10;99.90;;;;;;5065217;28;20222;-82
2022/09/18 07:31:38;;;;;;;6.90;1.50;;;12.10;99.90;;;;;;5066227;28;20223;-81
2022/09/18 07:34:06;;;;;;;4.00;1.60;;;12.10;99.90;;;;;;5063664;28;20213;-83
2022/09/18 07:36:34;;;;;;;6.27;1.87;;;12.10;99.90;;;;;;5059386;28;20600;-82
2022/09/18 07:39:01;;;;;;;8.70;1.77;;;12.20;99.90;;;;;;5058637;28;20207;-82
2022/09/18 07:41:27;;;;;;;5.80;1.93;;;12.30;99.90;;;;;;5064691;28;20611;-82
2022/09/18 07:43:54;;;;;;;5.30;1.70;;;12.20;99.90;;;;;;5066288;28;20208;-81
2022/09/18 07:46:21;;;;;;;4.47;1.83;;;12.30;99.90;;;;;;5062202;28;20223;-83
2022/09/18 07:48:48;;;;;;;5.30;1.83;;;12.30;99.90;;;;;;5064271;28;20207;-85
2022/09/18 07:51:14;;;;;;;6.77;2.13;;;12.30;99.90;;;;;;5069686;28;20214;-82
2022/09/18 07:53:42;;;;;;;6.97;2.27;;;12.30;99.90;;;;;;5061709;28;20238;-80
2022/09/18 07:56:10;;;;;;;5.50;1.70;;;12.30;99.90;;;;;;5062776;28;20341;-81
2022/09/18 07:58:38;;;;;;;7.17;1.87;;;12.30;99.90;;;;;;5065340;28;20667;-80
2022/09/18 08:01:06;;;;;;;7.97;2.23;;;12.50;99.90;;;;;;5061592;28;20205;-85
2022/09/18 08:03:33;;;;;;;9.47;2.03;;;12.40;99.90;;;;;;5057267;28;20577;-81
2022/09/18 08:06:00;;;;;;;4.53;1.90;;;12.50;99.90;;;;;;5052513;28;20223;-81
2022/09/18 08:08:28;;;;;;;5.93;2.00;;;12.60;99.90;;;;;;5052694;28;20199;-84
2022/09/18 08:10:56;;;;;;;4.90;1.90;;;12.50;99.90;;;;;;5056461;28;20294;-80
2022/09/18 08:13:23;;;;;;;4.77;1.90;;;12.50;99.90;;;;;;5058069;28;20214;-84
2022/09/18 08:15:50;;;;;;;5.33;1.77;;;12.20;99.90;;;;;;5055771;28;20236;-80
2022/09/18 08:18:17;;;;;;;4.77;2.03;;;12.20;99.90;;;;;;5059059;28;20199;-81
2022/09/18 08:20:44;;;;;;;10.07;2.00;;;12.20;99.90;;;;;;5054542;28;20274;-80
2022/09/18 08:23:11;;;;;;;6.13;1.90;;;12.20;99.90;;;;;;5058483;28;20203;-81
2022/09/18 08:25:38;;;;;;;6.47;1.83;;;12.30;99.90;;;;;;5056995;28;20219;-81
2022/09/18 08:28:07;;;;;;;3.83;2.27;;;12.30;99.90;;;;;;5058953;28;20198;-80
2022/09/18 08:30:35;;;;;;;5.77;1.40;;;12.50;99.90;;;;;;5053081;28;20199;-80
2022/09/18 08:33:03;;;;;;;3.87;1.50;;;12.50;99.90;;;;;;5057760;28;20238;-83
2022/09/18 08:35:30;;;;;;;2.63;0.97;;;12.50;99.90;;;;;;5054580;28;20242;-83
2022/09/18 08:37:57;;;;;;;3.60;1.33;;;12.40;99.90;;;;;;5055199;28;20207;-80
2022/09/18 08:40:39;;;;;;;3.10;1.03;;;12.50;99.90;;;;;;5052703;28;20644;-84
2022/09/18 08:43:17;;;;;;;8.50;1.30;;;12.40;99.90;;;;;;5056527;28;20199;-83
2022/09/18 08:45:54;;;;;;;2.90;1.70;;;12.60;99.90;;;;;;5057218;28;20270;-82
2022/09/18 08:48:25;;;;;;;5.13;1.60;;;12.70;99.90;;;;;;5053538;28;20217;-82
2022/09/18 08:50:58;;;;;;;7.10;1.50;;;12.70;99.90;;;;;;5052940;28;20663;-82
2022/09/18 08:53:30;;;;;;;4.73;1.70;;;12.80;99.90;;;;;;5051508;28;20195;-82
2022/09/18 08:56:00;;;;;;;11.67;2.13;;;13.00;99.90;;;;;;5053642;28;20223;-83
2022/09/18 08:58:34;;;;;;;5.13;1.77;;;13.00;99.90;;;;;;5056967;28;20209;-81
2022/09/18 09:01:06;;;;;;;6.53;1.30;;;13.00;99.90;;;;;;5061258;28;20217;-81
2022/09/18 09:03:44;;;;;;;3.40;1.50;;;13.10;99.90;;;;;;5060534;28;20202;-82
2022/09/18 09:06:25;;;;;;;7.47;1.70;;;13.20;99.90;;;;;;5056560;28;20222;-84
2022/09/18 09:09:10;;;;;;;4.03;1.60;;;13.20;99.90;;;;;;5070509;28;20204;-85
2022/09/18 09:11:45;;;;;;;4.77;1.67;;;13.30;99.90;;;;;;5059126;28;20222;-84
2022/09/18 09:14:29;;;;;;;5.57;1.70;;;13.40;99.90;;;;;;5059291;28;20206;-86
2022/09/18 09:17:04;;;;;;;2.20;1.23;;;13.50;73.20;;;;;;5063046;28;20640;-84
2022/09/18 09:19:39;;;;;;;4.10;1.47;;;13.40;99.90;;;;;;5058921;28;20617;-82
2022/09/18 09:22:12;;;;;;;6.00;1.50;;;13.40;99.90;;;;;;5054040;28;20226;-82
2022/09/18 09:24:53;;;;;;;3.73;1.23;;;13.30;99.90;;;;;;5061641;28;20226;-82
2022/09/18 09:27:25;;;;;;;6.03;1.17;;;13.20;99.90;;;;;;5056274;28;20592;-83
2022/09/18 09:30:00;;;;;;;5.33;1.27;;;13.10;99.90;;;;;;5061929;28;20202;-86
2022/09/18 09:32:33;;;;;;;4.80;1.43;;;13.00;99.90;;;;;;5069417;28;20260;-86
2022/09/18 09:35:08;;;;;;;4.07;1.20;;;13.10;99.90;;;;;;5063987;28;20222;-84
2022/09/18 09:37:40;;;;;;;4.87;1.90;;;13.30;99.90;;;;;;5066135;28;20686;-83
2022/09/18 09:40:15;;;;;;;3.13;1.17;;;13.50;8.80;;;;;;5060920;28;20203;-83
2022/09/18 09:42:48;;;;;;;5.80;1.47;;;13.50;1.00;;;;;;5060213;28;20194;-82
2022/09/18 09:45:23;;;;;;;3.83;1.10;;;13.30;99.90;;;;;;5062523;28;20227;-83
2022/09/18 09:47:56;;;;;;;3.90;0.70;;;13.40;1.00;;;;;;5064148;28;20238;-80
2022/09/18 09:50:44;;;;;;;3.43;1.23;;;13.30;99.90;;;;;;5063496;28;20218;-82
2022/09/18 09:53:13;;;;;;;3.07;0.97;;;13.60;89.50;;;;;;5064282;28;20233;-82
2022/09/18 09:55:48;;;;;;;5.43;0.83;;;13.70;1.00;;;;;;5069920;28;20282;-80
2022/09/18 09:58:25;;;;;;;4.83;1.00;;;13.70;1.00;;;;;;5061030;28;20655;-83
2022/09/18 10:01:01;;;;;;;3.60;1.20;;;13.60;1.00;;;;;;5057677;28;20213;-83
2022/09/18 10:03:39;;;;;;;4.07;0.90;;;13.40;99.90;;;;;;5057236;28;20222;-81
2022/09/18 10:06:19;;;;;;;1.27;0.70;;;13.50;1.00;;;;;;5063248;28;20219;-81
2022/09/18 10:08:50;;;;;;;2.20;0.80;;;13.80;1.00;;;;;;5056675;28;20802;-80
2022/09/18 10:11:17;;;;;;;4.00;1.13;;;13.80;1.00;;;;;;5058206;28;20214;-84
2022/09/18 10:13:51;;;;;;;2.07;0.80;;;13.70;99.90;;;;;;5063491;28;20194;-82
2022/09/18 10:16:23;;;;;;;2.73;1.03;;;13.50;1.00;;;;;;5060285;28;20670;-81
2022/09/18 10:18:50;;;;;;;4.43;0.87;;;13.50;99.90;;;;;;5055973;28;20209;-80
2022/09/18 10:21:19;;;;;;;0.90;0.50;;;13.50;1.00;;;;;;5061902;28;20209;-79
2022/09/18 10:23:50;;;;;;;1.60;0.80;;;13.50;1.00;;;;;;5067890;28;20199;-83
2022/09/18 10:26:21;;;;;;;2.83;1.17;;;13.50;99.90;;;;;;5061179;28;20227;-82
2022/09/18 10:28:48;;;;;;;1.20;0.80;;;13.40;1.00;;;;;;5069336;28;20198;-85
2022/09/18 10:31:16;;;;;;;1.20;0.63;;;13.40;1.00;;;;;;5063243;28;20262;-83
2022/09/18 10:33:46;;;;;;;2.40;0.60;;;13.40;1.00;;;;;;5062853;28;20703;-83
2022/09/18 10:36:30;;;;;;;3.03;1.40;;;13.40;1.00;;;;;;5065052;28;20225;-80
2022/09/18 10:38:58;;;;;;;2.40;0.70;;;13.40;1.00;;;;;;5062538;28;20699;-82
2022/09/18 10:41:32;;;;;;;2.00;0.80;;;13.50;1.00;;;;;;5061733;28;20226;-81
2022/09/18 10:44:06;;;;;;;1.90;0.97;;;13.40;1.00;;;;;;5061261;28;20209;-83
2022/09/18 10:46:35;;;;;;;3.13;0.80;;;13.50;1.00;;;;;;5071380;28;20282;-83
2022/09/18 10:49:18;;;;;;;2.60;0.90;;;13.60;1.00;;;;;;5059864;28;20227;-81
2022/09/18 10:51:45;;;;;;;3.60;0.80;;;13.60;1.00;;;;;;5061863;28;20233;-82
2022/09/18 10:54:18;;;;;;;2.37;0.90;;;13.70;1.00;;;;;;5058745;28;20213;-83
2022/09/18 10:56:45;;;;;;;1.23;0.80;;;13.80;1.00;;;;;;5061160;28;20246;-83
2022/09/18 10:59:32;;;;;;;1.40;0.90;;;13.60;1.00;;;;;;5062252;28;20209;-84
2022/09/18 11:02:01;;;;;;;2.43;0.83;;;13.60;1.00;;;;;;5060365;28;20647;-81
2022/09/18 11:04:31;;;;;;;3.00;1.00;;;13.50;1.00;;;;;;5061619;28;20270;-83
2022/09/18 11:07:01;;;;;;;4.90;1.33;;;13.70;99.90;;;;;;5059994;28;20218;-81
2022/09/18 11:09:32;;;;;;;2.27;1.00;;;13.80;99.90;;;;;;5061306;28;20203;-84
2022/09/18 11:11:59;;;;;;;3.80;1.10;;;13.80;1.00;;;;;;5060969;28;20660;-82
2022/09/18 11:14:29;;;;;;;2.57;0.73;;;13.90;99.90;;;;;;5062399;28;20456;-83
2022/09/18 11:16:59;;;;;;;2.33;0.60;;;13.90;1.00;;;;;;5062605;28;20199;-82
2022/09/18 11:19:32;;;;;;;4.63;1.17;;;13.80;1.00;;;;;;5069375;28;20195;-82
2022/09/18 11:22:02;;;;;;;2.10;1.03;;;14.00;1.00;;;;;;5059721;28;20230;-83
2022/09/18 11:24:33;;;;;;;0.70;0.60;;;14.10;1.00;;;;;;5062858;28;20202;-83
2022/09/18 11:27:02;;;;;;;1.07;0.67;;;13.90;1.00;;;;;;5061660;28;20232;-81
2022/09/18 11:29:31;;;;;;;1.87;1.23;;;13.90;1.00;;;;;;5062091;28;20578;-81
2022/09/18 11:32:16;;;;;;;2.90;1.07;;;13.90;1.00;;;;;;5060985;28;20676;-79
2022/09/18 11:34:48;;;;;;;3.67;1.03;;;13.70;1.00;;;;;;5061706;28;20740;-82
2022/09/18 11:37:26;;;;;;;2.40;1.20;;;14.00;99.90;;;;;;5061323;28;20257;-84
2022/09/18 11:39:58;;;;;;;2.57;1.23;;;14.10;1.00;;;;;;5056012;28;20212;-81
2022/09/18 11:42:26;;;;;;;1.23;0.70;;;13.90;1.00;;;;;;5061561;28;20282;-80
2022/09/18 11:45:05;;;;;;;3.83;0.90;;;13.80;99.90;;;;;;5056963;28;20223;-82
2022/09/18 11:47:40;;;;;;;2.80;0.70;;;13.70;1.00;;;;;;5058396;28;20209;-82
2022/09/18 11:50:16;;;;;;;2.27;1.27;;;13.50;1.00;;;;;;5069182;28;20226;-84
2022/09/18 11:52:45;;;;;;;2.00;0.90;;;13.70;1.00;;;;;;5059581;28;20219;-83
2022/09/18 11:55:23;;;;;;;1.43;0.50;;;14.00;1.00;;;;;;5059937;28;20234;-83
2022/09/18 11:57:55;;;;;;;1.60;0.60;;;13.80;1.00;;;;;;5059926;28;20225;-86
2022/09/18 12:00:23;;;;;;;3.33;0.60;;;13.60;1.00;;;;;;5057511;28;20213;-85
2022/09/18 12:03:01;;;;;;;1.03;0.30;;;13.60;1.00;;;;;;5057519;28;20569;-81
2022/09/18 12:05:36;;;;;;;1.47;0.60;;;13.40;1.00;;;;;;5054142;28;20228;-86
2022/09/18 12:08:12;;;;;;;1.00;0.40;;;13.30;99.90;;;;;;5061109;28;20214;-83
2022/09/18 12:10:52;;;;;;;1.60;0.40;;;13.30;1.00;;;;;;5064643;28;20201;-85
2022/09/18 12:13:39;;;;;;;1.87;0.60;;;13.40;99.90;;;;;;5061830;28;20593;-82
2022/09/18 12:16:13;;;;;;;1.50;0.57;;;13.20;99.90;;;;;;5063002;28;20265;-81
2022/09/18 12:18:49;;;;;;;3.20;1.23;;;13.20;99.90;;;;;;5058669;28;20212;-83
2022/09/18 12:21:21;;;;;;;1.33;0.50;;;13.20;1.00;;;;;;5059426;28;20261;-82
2022/09/18 12:23:48;;;;;;;1.23;0.40;;;13.20;1.00;;;;;;5067366;28;20210;-83
2022/09/18 12:26:21;;;;;;;2.13;0.50;;;13.10;99.90;;;;;;5053760;28;20228;-85
2022/09/18 12:29:01;;;;;;;0.33;0.30;;;13.10;99.90;;;;;;5066656;28;20213;-85
2022/09/18 12:31:35;;;;;;;1.70;0.50;;;13.10;1.00;;;;;;5060903;28;20203;-85
2022/09/18 12:34:11;;;;;;;2.57;0.87;;;13.20;29.60;;;;;;5058391;28;20227;-84
2022/09/18 12:37:00;;;;;;;0.73;0.50;;;13.20;1.00;;;;;;5059571;28;20225;-82
2022/09/18 12:39:59;;;;;;;2.80;1.00;;;13.10;1.00;;;;;;5063999;28;20258;-81
2022/09/18 12:42:37;;;;;;;2.00;0.73;;;13.20;99.90;;;;;;5062478;28;20199;-81
2022/09/18 12:45:39;;;;;;;4.10;2.07;;;13.20;1.00;;;;;;5074860;28;20586;-82
2022/09/18 12:48:33;;;;;;;5.67;2.13;;;13.10;99.90;;;;;;5058648;28;20203;-83
2022/09/18 12:51:12;;;;;;;2.17;1.43;;;13.20;1.00;;;;;;5059365;28;20207;-83
2022/09/18 12:53:55;;;;;;;4.77;1.70;;;13.20;99.90;;;;;;5062108;28;20690;-82
2022/09/18 12:56:38;;;;;;;4.57;3.27;;;13.20;1.00;;;;;;5059889;28;20237;-84
2022/09/18 12:59:39;;;;;;;1.93;1.37;;;13.10;1.00;;;;;;5060878;28;20611;-80
2022/09/18 13:02:16;;;;;;;4.13;2.03;;;13.10;1.00;;;;;;5063987;28;20210;-81
2022/09/18 13:04:48;;;;;;;2.33;0.57;;;13.00;1.00;;;;;;5064187;28;20275;-83
2022/09/18 13:07:23;;;;;;;1.33;0.70;;;13.20;1.00;;;;;;5059117;28;20207;-83
2022/09/18 13:09:58;;;;;;;1.70;1.07;;;13.40;99.90;;;;;;5055969;28;20570;-83